Time;durP1;ratioP1;P1;durP2;ratioP2;P2;SDS_P1;SDS_P2;PMS_P1;PMS_P2;Temp;Humidity;BMP_temperature;BMP_pressure;BME280_temperature;BME280_humidity;BME280_pressure;Samples;Min_cycle;Max_cycle;Signal;HPM_P1;HPM_P2
2022/07/28 00:00:09;;;;;;;0.00;0.00;;;;;;;14.37;73.20;101955.72;4959513;28;20105;-67
2022/07/28 00:02:34;;;;;;;0.00;0.00;;;;;;;14.32;73.07;101953.38;4962105;28;20101;-68
2022/07/28 00:04:59;;;;;;;0.00;0.00;;;;;;;14.23;73.78;101952.22;4977462;28;20502;-68
2022/07/28 00:07:25;;;;;;;0.00;0.00;;;;;;;14.20;73.83;101946.19;4959488;28;20093;-68
2022/07/28 00:09:50;;;;;;;0.00;0.00;;;;;;;14.24;74.01;101951.25;4959487;28;20479;-67
2022/07/28 00:12:16;;;;;;;0.03;0.03;;;;;;;14.28;73.57;101948.31;4955573;28;20062;-68
2022/07/28 00:14:41;;;;;;;0.00;0.00;;;;;;;14.20;73.67;101938.06;4958059;28;20028;-67
2022/07/28 00:17:07;;;;;;;0.00;0.00;;;;;;;14.25;73.20;101939.47;4954283;28;20054;-68
2022/07/28 00:19:32;;;;;;;0.00;0.00;;;;;;;14.34;73.21;101958.63;4960658;28;20113;-68
2022/07/28 00:21:57;;;;;;;0.00;0.00;;;;;;;14.29;73.57;101953.59;4960935;28;20023;-68
2022/07/28 00:24:23;;;;;;;0.00;0.00;;;;;;;14.22;73.93;101965.84;4963056;28;20126;-68
2022/07/28 00:26:48;;;;;;;0.05;0.05;;;;;;;14.14;73.95;101958.31;4961647;28;20057;-67
2022/07/28 00:29:14;;;;;;;0.00;0.00;;;;;;;14.21;73.73;101956.00;4960991;28;20390;-68
2022/07/28 00:31:39;;;;;;;0.20;0.00;;;;;;;14.19;74.30;101947.16;4955294;28;20035;-67
2022/07/28 00:34:05;;;;;;;0.00;0.00;;;;;;;13.99;73.90;101924.38;4965349;28;20062;-67
2022/07/28 00:36:30;;;;;;;0.05;0.05;;;;;;;14.11;73.61;101936.94;4960146;28;20042;-68
2022/07/28 00:38:55;;;;;;;0.00;0.00;;;;;;;14.01;73.85;101923.28;4957241;28;20038;-67
2022/07/28 00:41:21;;;;;;;0.00;0.00;;;;;;;14.08;74.04;101934.47;4960898;28;20058;-68
2022/07/28 00:43:49;;;;;;;0.10;0.10;;;;;;;14.05;73.79;101937.41;4957190;28;20065;-67
2022/07/28 00:46:17;;;;;;;0.10;0.10;;;;;;;14.11;72.92;101931.53;4957671;28;20026;-67
2022/07/28 00:48:45;;;;;;;0.00;0.00;;;;;;;14.04;73.32;101931.16;4954265;28;20078;-68
2022/07/28 00:51:10;;;;;;;0.00;0.00;;;;;;;13.93;73.59;101933.78;4957348;28;20023;-67
2022/07/28 00:53:37;;;;;;;0.00;0.00;;;;;;;13.91;73.41;101933.91;4974587;28;20077;-67
2022/07/28 00:56:03;;;;;;;0.10;0.10;;;;;;;13.74;73.94;101907.31;4960850;28;20039;-68
2022/07/28 00:58:28;;;;;;;0.00;0.00;;;;;;;13.79;73.93;101924.88;4960769;28;20036;-68
2022/07/28 01:00:54;;;;;;;0.00;0.00;;;;;;;13.62;73.90;101912.63;4957594;28;20041;-67
2022/07/28 01:03:20;;;;;;;0.00;0.00;;;;;;;13.74;73.81;101932.47;4962006;28;20074;-67
2022/07/28 01:05:57;;;;;;;0.03;0.03;;;;;;;13.70;73.52;101922.88;4960531;28;20030;-67
2022/07/28 01:08:44;;;;;;;0.10;0.10;;;;;;;13.64;73.74;101924.19;4958307;28;20034;-67
2022/07/28 01:11:25;;;;;;;0.00;0.00;;;;;;;13.65;73.43;101931.31;4955742;28;20039;-68
2022/07/28 01:14:00;;;;;;;0.03;0.03;;;;;;;13.45;74.37;101907.63;4958738;28;20027;-67
2022/07/28 01:16:26;;;;;;;0.00;0.00;;;;;;;13.45;74.62;101921.97;4958990;28;20029;-68
2022/07/28 01:19:21;;;;;;;0.00;0.00;;;;;;;13.35;74.65;101921.75;4954341;28;20023;-68
2022/07/28 01:21:47;;;;;;;0.00;0.00;;;;;;;13.24;74.65;101921.69;4957322;28;20112;-68
2022/07/28 01:24:21;;;;;;;0.00;0.00;;;;;;;13.26;74.44;101917.00;4955717;28;20109;-68
2022/07/28 01:27:03;;;;;;;0.00;0.00;;;;;;;13.35;73.84;101915.50;4959644;28;20023;-68
2022/07/28 01:29:57;;;;;;;0.05;0.05;;;;;;;13.26;73.74;101913.47;4959128;28;20154;-68
2022/07/28 01:32:25;;;;;;;0.00;0.00;;;;;;;13.22;74.22;101917.34;4959700;28;20530;-68
2022/07/28 01:34:53;;;;;;;0.03;0.03;;;;;;;13.17;74.14;101912.31;4961283;28;20135;-68
2022/07/28 01:37:27;;;;;;;0.00;0.00;;;;;;;13.14;73.85;101907.13;4955652;28;20497;-68
2022/07/28 01:39:56;;;;;;;0.00;0.00;;;;;;;13.13;74.00;101902.69;4959545;28;20065;-68
2022/07/28 01:42:23;;;;;;;0.00;0.00;;;;;;;13.09;75.02;101903.88;4940742;28;20371;-68
2022/07/28 01:44:49;;;;;;;0.00;0.00;;;;;;;13.09;74.47;101899.38;4957392;28;20165;-68
2022/07/28 01:47:15;;;;;;;0.00;0.00;;;;;;;12.94;74.06;101873.50;4959137;28;20557;-68
2022/07/28 01:49:42;;;;;;;0.03;0.03;;;;;;;12.96;73.96;101887.72;4958539;28;20623;-68
2022/07/28 01:52:08;;;;;;;0.00;0.00;;;;;;;13.04;74.17;101905.06;4952805;28;20042;-68
2022/07/28 01:54:36;;;;;;;0.00;0.00;;;;;;;13.01;73.86;101897.22;4960599;28;20446;-68
2022/07/28 01:57:02;;;;;;;0.00;0.00;;;;;;;13.02;73.98;101895.38;4954971;28;20034;-68
2022/07/28 01:59:29;;;;;;;0.05;0.05;;;;;;;13.00;73.70;101881.16;4955921;28;20041;-68
2022/07/28 02:01:55;;;;;;;0.00;0.00;;;;;;;12.97;74.36;101882.25;4954845;28;21734;-68
2022/07/28 02:04:22;;;;;;;0.00;0.00;;;;;;;12.89;74.65;101885.47;4973744;28;20054;-67
2022/07/28 02:06:48;;;;;;;0.10;0.10;;;;;;;12.91;74.76;101885.38;4961411;28;20031;-67
2022/07/28 02:09:14;;;;;;;0.00;0.00;;;;;;;12.92;74.26;101892.50;4953863;28;20043;-67
2022/07/28 02:11:40;;;;;;;0.10;0.10;;;;;;;12.95;74.42;101894.09;4957500;28;20488;-67
2022/07/28 02:14:08;;;;;;;0.00;0.00;;;;;;;13.02;74.19;101882.75;4959813;28;20570;-67
2022/07/28 02:16:34;;;;;;;0.00;0.00;;;;;;;13.09;73.41;101888.59;4957614;28;20447;-66
2022/07/28 02:18:59;;;;;;;0.00;0.00;;;;;;;13.06;74.43;101880.72;4963117;28;20030;-67
2022/07/28 02:21:25;;;;;;;0.00;0.00;;;;;;;13.00;74.08;101890.09;4942515;28;20117;-67
2022/07/28 02:23:52;;;;;;;0.00;0.00;;;;;;;13.07;74.02;101884.25;4956331;28;20062;-67
2022/07/28 02:26:20;;;;;;;0.00;0.00;;;;;;;13.08;74.18;101884.16;4957400;28;20038;-67
2022/07/28 02:28:50;;;;;;;0.00;0.00;;;;;;;13.00;75.13;101879.31;4954711;28;20026;-68
2022/07/28 02:31:19;;;;;;;0.10;0.10;;;;;;;13.05;74.98;101879.00;4963439;28;20030;-68
2022/07/28 02:33:45;;;;;;;0.00;0.00;;;;;;;13.07;74.83;101874.34;4957508;28;20026;-67
2022/07/28 02:36:16;;;;;;;0.00;0.00;;;;;;;13.10;74.60;101870.56;4952692;28;20030;-67
2022/07/28 02:38:45;;;;;;;0.00;0.00;;;;;;;13.07;74.80;101863.56;4956427;28;20031;-67
2022/07/28 02:41:24;;;;;;;0.00;0.00;;;;;;;13.14;75.14;101869.38;4971605;28;20031;-67
2022/07/28 02:43:51;;;;;;;0.03;0.03;;;;;;;13.17;74.44;101863.75;4955169;28;20046;-67
2022/07/28 02:46:19;;;;;;;0.00;0.00;;;;;;;13.14;74.68;101862.13;4949871;28;20043;-67
2022/07/28 02:48:48;;;;;;;0.10;0.10;;;;;;;13.13;74.33;101868.50;4953781;28;20536;-67
2022/07/28 02:51:15;;;;;;;0.00;0.00;;;;;;;13.18;74.82;101874.44;4958800;28;20041;-67
2022/07/28 02:53:40;;;;;;;0.00;0.00;;;;;;;13.14;74.69;101870.22;4956225;28;20041;-67
2022/07/28 02:56:06;;;;;;;0.00;0.00;;;;;;;13.20;74.04;101867.09;4960207;28;20034;-67
2022/07/28 02:58:31;;;;;;;0.00;0.00;;;;;;;13.26;73.98;101865.78;4962323;28;20490;-67
2022/07/28 03:00:57;;;;;;;0.10;0.10;;;;;;;13.20;74.39;101868.94;4962652;28;20054;-67
2022/07/28 03:03:23;;;;;;;0.08;0.08;;;;;;;13.09;74.04;101858.94;4964854;28;20092;-67
2022/07/28 03:05:48;;;;;;;0.10;0.10;;;;;;;12.97;74.37;101849.03;4964062;28;20031;-67
2022/07/28 03:08:15;;;;;;;0.00;0.00;;;;;;;13.20;74.23;101867.09;4961976;28;20538;-67
2022/07/28 03:10:41;;;;;;;0.00;0.00;;;;;;;13.25;73.99;101879.38;4964081;28;20081;-67
2022/07/28 03:13:06;;;;;;;0.10;0.10;;;;;;;13.22;74.12;101869.69;4964149;28;20705;-67
2022/07/28 03:15:32;;;;;;;0.10;0.10;;;;;;;13.10;74.21;101860.66;4963948;28;20034;-67
2022/07/28 03:17:59;;;;;;;0.00;0.00;;;;;;;13.19;74.85;101878.00;4962713;28;20512;-67
2022/07/28 03:20:24;;;;;;;0.00;0.00;;;;;;;13.15;74.31;101877.34;4963762;28;20034;-67
2022/07/28 03:22:49;;;;;;;0.00;0.00;;;;;;;13.18;74.42;101877.13;4962130;28;20030;-67
2022/07/28 03:25:20;;;;;;;0.05;0.05;;;;;;;13.20;74.47;101880.56;4960919;28;20030;-67
2022/07/28 03:27:47;;;;;;;0.00;0.00;;;;;;;13.20;74.94;101885.97;4944615;28;20507;-67
2022/07/28 03:30:14;;;;;;;0.00;0.00;;;;;;;13.15;75.15;101874.66;4960478;28;20376;-67
2022/07/28 03:32:43;;;;;;;0.00;0.00;;;;;;;13.22;74.63;101882.28;4961824;28;20424;-67
2022/07/28 03:35:09;;;;;;;0.00;0.00;;;;;;;13.16;75.52;101881.75;4963388;28;20042;-67
2022/07/28 03:37:49;;;;;;;0.10;0.10;;;;;;;13.07;75.44;101886.97;4971393;28;20030;-67
2022/07/28 03:40:15;;;;;;;0.10;0.10;;;;;;;13.02;75.67;101881.91;4958488;28;20085;-67
2022/07/28 03:42:45;;;;;;;0.00;0.00;;;;;;;13.01;75.22;101872.94;4957731;28;20458;-67
2022/07/28 03:45:10;;;;;;;0.00;0.00;;;;;;;13.12;75.13;101891.03;4960895;28;20026;-67
2022/07/28 03:47:35;;;;;;;0.00;0.00;;;;;;;13.08;76.07;101889.56;4962899;28;20042;-67
2022/07/28 03:50:01;;;;;;;0.00;0.00;;;;;;;13.00;76.22;101891.94;4963592;28;20053;-67
2022/07/28 03:52:26;;;;;;;0.00;0.00;;;;;;;12.91;76.59;101888.06;4963202;28;20034;-67
2022/07/28 03:54:52;;;;;;;0.10;0.10;;;;;;;12.94;76.66;101895.06;4961654;28;20166;-67
2022/07/28 03:57:17;;;;;;;0.00;0.00;;;;;;;12.83;76.56;101869.75;4945774;28;20038;-67
2022/07/28 03:59:43;;;;;;;0.08;0.08;;;;;;;12.92;76.48;101894.31;4959062;28;20034;-67
2022/07/28 04:02:08;;;;;;;0.05;0.05;;;;;;;12.95;76.59;101896.78;4970464;28;20074;-67
2022/07/28 04:04:33;;;;;;;0.00;0.00;;;;;;;12.75;76.53;101875.66;4964496;28;20049;-66
2022/07/28 04:06:58;;;;;;;0.00;0.00;;;;;;;12.85;77.14;101889.34;4960007;28;20122;-67
2022/07/28 04:09:24;;;;;;;0.08;0.08;;;;;;;12.95;76.57;101897.66;4963022;28;20098;-67
2022/07/28 04:11:49;;;;;;;0.00;0.00;;;;;;;12.93;76.78;101894.22;4961662;28;20031;-67
2022/07/28 04:14:16;;;;;;;0.10;0.10;;;;;;;12.94;77.19;101895.06;4961048;28;20035;-67
2022/07/28 04:16:41;;;;;;;0.08;0.08;;;;;;;12.91;76.89;101896.16;4960115;28;20498;-67
2022/07/28 04:19:07;;;;;;;0.10;0.10;;;;;;;12.92;77.35;101888.91;4961912;28;20140;-67
2022/07/28 04:21:32;;;;;;;0.10;0.10;;;;;;;12.93;77.67;101890.66;4957093;28;20037;-68
2022/07/28 04:23:57;;;;;;;0.00;0.00;;;;;;;12.92;77.18;101888.91;4961916;28;20081;-67
2022/07/28 04:26:23;;;;;;;0.10;0.10;;;;;;;12.82;78.55;101892.28;4959874;28;20117;-67
2022/07/28 04:28:48;;;;;;;0.00;0.00;;;;;;;12.78;78.55;101885.38;4957692;28;20030;-67
2022/07/28 04:31:13;;;;;;;0.00;0.00;;;;;;;12.80;78.70;101879.88;4960760;28;20121;-67
2022/07/28 04:33:39;;;;;;;0.00;0.00;;;;;;;12.84;78.21;101878.69;4957110;28;20117;-66
2022/07/28 04:36:04;;;;;;;0.00;0.00;;;;;;;12.77;78.92;101886.34;4957727;28;20086;-67
2022/07/28 04:38:30;;;;;;;0.00;0.00;;;;;;;12.78;78.69;101877.28;4963166;28;20557;-67
2022/07/28 04:40:56;;;;;;;0.05;0.05;;;;;;;12.89;78.30;101885.47;4956907;28;20031;-67
2022/07/28 04:43:21;;;;;;;0.00;0.00;;;;;;;12.90;78.18;101873.72;4957722;28;20034;-68
2022/07/28 04:45:47;;;;;;;0.00;0.00;;;;;;;12.87;78.89;101881.16;4959377;28;20459;-67
2022/07/28 04:48:13;;;;;;;0.10;0.10;;;;;;;12.87;78.84;101873.94;4955327;28;20058;-67
2022/07/28 04:50:40;;;;;;;0.00;0.00;;;;;;;12.84;78.09;101859.81;4958327;28;20410;-67
2022/07/28 04:53:06;;;;;;;0.10;0.10;;;;;;;12.97;78.23;101879.56;4956916;28;20026;-67
2022/07/28 04:55:31;;;;;;;0.00;0.00;;;;;;;12.96;78.92;101877.81;4963298;28;20035;-67
2022/07/28 04:57:57;;;;;;;0.00;0.00;;;;;;;13.01;78.89;101883.72;4955825;28;20026;-67
2022/07/28 05:00:22;;;;;;;0.05;0.05;;;;;;;12.93;78.82;101869.06;4957917;28;20030;-68
2022/07/28 05:02:48;;;;;;;0.10;0.10;;;;;;;12.98;78.82;101880.41;4952575;28;20027;-66
2022/07/28 05:05:14;;;;;;;0.00;0.00;;;;;;;13.05;78.92;101885.25;4955986;28;20438;-67
2022/07/28 05:07:39;;;;;;;0.10;0.10;;;;;;;13.01;78.61;101866.69;4958336;28;20062;-67
2022/07/28 05:10:06;;;;;;;0.10;0.10;;;;;;;13.12;78.25;101876.72;4956903;28;20126;-67
2022/07/28 05:12:32;;;;;;;0.00;0.00;;;;;;;13.18;78.13;101873.56;4958154;28;20031;-68
2022/07/28 05:14:58;;;;;;;0.00;0.00;;;;;;;12.94;78.20;101843.84;4963295;28;20554;-68
2022/07/28 05:17:23;;;;;;;0.10;0.10;;;;;;;13.14;78.11;101872.91;4966640;28;20035;-68
2022/07/28 05:19:48;;;;;;;0.03;0.03;;;;;;;13.25;78.04;101872.13;4960257;28;20023;-67
2022/07/28 05:22:14;;;;;;;0.10;0.10;;;;;;;13.25;78.05;101874.84;4958789;28;20105;-67
2022/07/28 05:24:39;;;;;;;0.10;0.10;;;;;;;13.30;77.83;101875.38;4958237;28;20034;-67
2022/07/28 05:27:04;;;;;;;0.05;0.05;;;;;;;13.32;77.83;101880.66;4963053;28;20518;-67
2022/07/28 05:29:29;;;;;;;0.00;0.00;;;;;;;13.37;77.90;101880.31;4957642;28;20031;-67
2022/07/28 05:31:55;;;;;;;0.00;0.00;;;;;;;13.21;78.09;101854.47;4957510;28;20038;-67
2022/07/28 05:34:20;;;;;;;0.10;0.10;;;;;;;13.29;76.91;101857.47;4956392;28;20026;-68
2022/07/28 05:36:46;;;;;;;0.10;0.10;;;;;;;13.55;76.68;101884.38;4959729;28;20308;-68
2022/07/28 05:39:11;;;;;;;0.00;0.00;;;;;;;13.45;77.94;101859.06;4961444;28;20369;-68
2022/07/28 05:41:37;;;;;;;0.00;0.00;;;;;;;13.45;77.75;101862.63;4959467;28;20105;-68
2022/07/28 05:44:02;;;;;;;0.00;0.00;;;;;;;13.58;77.31;101872.53;4945165;28;20368;-68
2022/07/28 05:46:27;;;;;;;0.10;0.10;;;;;;;13.74;76.58;101874.94;4980305;28;20030;-68
2022/07/28 05:48:53;;;;;;;0.10;0.10;;;;;;;13.89;76.06;101892.66;4962669;28;20081;-68
2022/07/28 05:51:18;;;;;;;0.00;0.00;;;;;;;13.92;74.45;101892.44;4964892;28;20121;-67
2022/07/28 05:53:43;;;;;;;0.08;0.08;;;;;;;14.02;74.57;101900.69;4977874;28;20118;-68
2022/07/28 05:56:09;;;;;;;0.00;0.00;;;;;;;14.05;74.88;101878.88;4965812;28;20045;-68
2022/07/28 05:58:34;;;;;;;0.00;0.00;;;;;;;14.15;74.38;101883.56;4964503;28;20041;-68
2022/07/28 06:01:00;;;;;;;0.35;0.10;;;;;;;14.24;72.36;101907.16;4960232;28;20042;-67
2022/07/28 06:03:27;;;;;;;0.00;0.00;;;;;;;14.22;71.30;101907.28;4960681;28;20039;-66
2022/07/28 06:05:55;;;;;;;0.00;0.00;;;;;;;14.14;71.81;101889.97;4964102;28;20151;-67
2022/07/28 06:08:20;;;;;;;0.10;0.10;;;;;;;14.32;70.36;101898.47;4960544;28;20375;-67
2022/07/28 06:13:29;;;;;;;0.00;0.00;;;;;;;14.63;70.70;101896.97;4962447;28;20049;-69
2022/07/28 06:15:55;;;;;;;0.00;0.00;;;;;;;14.68;70.76;101897.50;4959060;28;20034;-69
2022/07/28 06:18:23;;;;;;;0.00;0.00;;;;;;;14.78;69.51;101883.22;4960283;28;20061;-69
2022/07/28 06:20:48;;;;;;;0.10;0.10;;;;;;;14.83;70.75;101881.03;4962549;28;20089;-68
2022/07/28 06:23:19;;;;;;;0.00;0.00;;;;;;;15.17;69.57;101896.38;4964397;28;20498;-67
2022/07/28 06:25:45;;;;;;;0.10;0.10;;;;;;;15.06;69.35;101890.03;4962860;28;20019;-68
2022/07/28 06:28:10;;;;;;;0.10;0.10;;;;;;;14.96;69.41;101889.88;4962457;28;20054;-68
2022/07/28 06:30:36;;;;;;;0.10;0.10;;;;;;;14.99;69.69;101894.19;4962850;28;20458;-68
2022/07/28 06:33:04;;;;;;;0.10;0.10;;;;;;;14.79;69.72;101875.03;4962433;28;20427;-68
2022/07/28 06:35:29;;;;;;;0.03;0.03;;;;;;;15.00;71.12;101904.88;4967321;28;20154;-68
2022/07/28 06:37:54;;;;;;;0.00;0.00;;;;;;;15.04;69.96;101902.81;4962287;28;20478;-68
2022/07/28 06:40:20;;;;;;;0.10;0.10;;;;;;;15.01;70.33;101878.72;4970277;28;20069;-68
2022/07/28 06:42:46;;;;;;;0.00;0.00;;;;;;;15.20;69.45;101880.78;4961749;28;20035;-68
2022/07/28 06:45:12;;;;;;;0.00;0.00;;;;;;;15.31;69.10;101898.84;4964614;28;20450;-68
2022/07/28 06:47:38;;;;;;;0.10;0.10;;;;;;;15.19;70.10;101898.00;4965224;28;20029;-68
2022/07/28 06:50:04;;;;;;;0.00;0.00;;;;;;;15.28;69.78;101897.25;4962308;28;20734;-68
2022/07/28 06:52:30;;;;;;;0.00;0.00;;;;;;;15.27;70.05;101875.72;4967484;28;20556;-69
2022/07/28 06:54:55;;;;;;;0.05;0.05;;;;;;;15.42;69.93;101870.91;4972313;28;20069;-69
2022/07/28 06:57:21;;;;;;;0.00;0.00;;;;;;;15.66;70.06;101894.22;4961524;28;20031;-69
2022/07/28 06:59:49;;;;;;;0.00;0.00;;;;;;;15.70;69.67;101895.69;4967136;28;20084;-68
2022/07/28 07:02:15;;;;;;;0.00;0.00;;;;;;;15.71;69.29;101897.41;4966465;28;20454;-68
2022/07/28 07:04:41;;;;;;;0.00;0.00;;;;;;;15.54;69.25;101894.25;4962272;28;20366;-68
2022/07/28 07:07:07;;;;;;;0.00;0.00;;;;;;;15.68;68.54;101884.97;4963927;28;20037;-69
2022/07/28 07:09:32;;;;;;;0.00;0.00;;;;;;;15.48;68.94;101867.72;4966621;28;20034;-68
2022/07/28 07:11:58;;;;;;;0.00;0.00;;;;;;;15.67;69.40;101880.56;4961197;28;20943;-68
2022/07/28 07:14:23;;;;;;;0.00;0.00;;;;;;;15.71;68.67;101882.03;4959427;28;20505;-68
2022/07/28 07:16:49;;;;;;;0.05;0.05;;;;;;;15.81;68.05;101886.69;4958526;28;20059;-68
2022/07/28 07:19:15;;;;;;;0.00;0.00;;;;;;;15.84;67.77;101889.13;4964193;28;20026;-68
2022/07/28 07:21:40;;;;;;;0.00;0.00;;;;;;;15.79;68.00;101878.66;4964849;28;20456;-69
2022/07/28 07:24:06;;;;;;;0.00;0.00;;;;;;;15.94;67.45;101890.09;4982092;28;20058;-66
2022/07/28 07:26:31;;;;;;;0.10;0.10;;;;;;;15.88;67.29;101883.34;4964967;28;20522;-67
2022/07/28 07:28:56;;;;;;;0.00;0.00;;;;;;;15.98;68.46;101888.00;4962249;28;20051;-67
2022/07/28 07:31:22;;;;;;;0.00;0.00;;;;;;;16.01;67.94;101896.72;4967069;28;20483;-67
2022/07/28 07:33:47;;;;;;;0.00;0.00;;;;;;;16.13;67.99;101888.56;4967821;28;20041;-67
2022/07/28 07:36:12;;;;;;;0.00;0.00;;;;;;;16.34;66.67;101883.13;4964244;28;20031;-67
2022/07/28 07:38:38;;;;;;;0.00;0.00;;;;;;;16.48;65.70;101881.94;4962194;28;20082;-68
2022/07/28 07:41:03;;;;;;;0.00;0.00;;;;;;;16.75;65.52;101886.81;4964099;28;20464;-68
2022/07/28 07:43:28;;;;;;;0.00;0.00;;;;;;;16.95;66.46;101878.75;4958180;28;20039;-68
2022/07/28 07:45:54;;;;;;;0.00;0.00;;;;;;;17.18;64.04;101868.63;4955623;28;20027;-69
2022/07/28 07:48:19;;;;;;;0.00;0.00;;;;;;;17.56;63.16;101878.81;4965262;28;20060;-67
2022/07/28 07:50:45;;;;;;;0.00;0.00;;;;;;;17.60;62.21;101875.72;4958850;28;20047;-67
2022/07/28 07:53:10;;;;;;;0.00;0.00;;;;;;;17.61;62.09;101868.41;4963666;28;20066;-67
2022/07/28 07:55:35;;;;;;;0.00;0.00;;;;;;;17.22;63.21;101851.03;4968259;28;20495;-68
2022/07/28 07:58:01;;;;;;;0.00;0.00;;;;;;;17.31;61.13;101876.50;4970296;28;20035;-67
2022/07/28 08:00:26;;;;;;;0.00;0.00;;;;;;;17.49;63.85;101871.22;4962784;28;20463;-68
2022/07/28 08:02:52;;;;;;;0.00;0.00;;;;;;;17.74;62.12;101874.44;4966284;28;20030;-67
2022/07/28 08:05:17;;;;;;;0.00;0.00;;;;;;;17.90;61.30;101873.84;4962954;28;20121;-67
2022/07/28 08:07:43;;;;;;;0.00;0.00;;;;;;;17.96;62.62;101872.44;4968082;28;20027;-68
2022/07/28 08:10:08;;;;;;;0.00;0.00;;;;;;;18.12;59.78;101874.63;4963857;28;20487;-68
2022/07/28 08:12:34;;;;;;;0.10;0.10;;;;;;;18.30;62.04;101882.88;4959894;28;20034;-67
2022/07/28 08:14:59;;;;;;;0.00;0.00;;;;;;;18.21;62.32;101876.44;4964089;28;20051;-68
2022/07/28 08:17:25;;;;;;;0.00;0.00;;;;;;;18.25;61.15;101874.31;4962493;28;20468;-68
2022/07/28 08:19:50;;;;;;;0.00;0.00;;;;;;;18.38;58.91;101865.84;4960551;28;20077;-69
2022/07/28 08:22:16;;;;;;;0.00;0.00;;;;;;;18.09;58.71;101864.03;4961586;28;20741;-67
2022/07/28 08:24:41;;;;;;;0.00;0.00;;;;;;;17.91;59.80;101862.00;4967714;28;20097;-69
2022/07/28 08:27:07;;;;;;;0.00;0.00;;;;;;;17.96;59.32;101867.00;4965267;28;20114;-69
2022/07/28 08:29:32;;;;;;;0.00;0.00;;;;;;;17.96;59.18;101867.84;4967471;28;20055;-68
2022/07/28 08:31:57;;;;;;;0.00;0.00;;;;;;;18.00;58.26;101857.59;4960533;28;20042;-69
2022/07/28 08:34:24;;;;;;;0.00;0.00;;;;;;;18.22;58.46;101855.59;4954632;28;20055;-68
2022/07/28 08:36:49;;;;;;;0.00;0.00;;;;;;;18.38;58.17;101860.41;4963313;28;20089;-68
2022/07/28 08:39:14;;;;;;;0.00;0.00;;;;;;;18.27;56.35;101835.09;4964356;28;20065;-68
2022/07/28 08:41:47;;;;;;;0.00;0.00;;;;;;;18.37;57.88;101848.66;4946250;28;20123;-69
2022/07/28 08:44:14;;;;;;;0.00;0.00;;;;;;;18.73;57.06;101854.31;4964305;28;20077;-68
2022/07/28 08:46:41;;;;;;;0.00;0.00;;;;;;;18.94;57.39;101849.63;4957552;28;20036;-68
2022/07/28 08:49:08;;;;;;;0.00;0.00;;;;;;;19.13;55.61;101851.44;4963861;28;20339;-69
2022/07/28 08:51:33;;;;;;;0.00;0.00;;;;;;;18.99;55.66;101842.78;4966201;28;20023;-68
2022/07/28 08:54:00;;;;;;;0.00;0.00;;;;;;;18.91;53.53;101837.19;4963357;28;20427;-68
2022/07/28 08:56:25;;;;;;;0.00;0.00;;;;;;;18.99;53.68;101850.94;4964230;28;20027;-67
2022/07/28 08:58:51;;;;;;;0.00;0.00;;;;;;;19.16;56.50;101856.56;4964253;28;20050;-67
2022/07/28 09:01:16;;;;;;;0.00;0.00;;;;;;;19.55;56.82;101856.34;4966307;28;20124;-68
2022/07/28 09:03:42;;;;;;;0.00;0.00;;;;;;;19.62;53.86;101853.84;4960681;28;20127;-67
2022/07/28 09:06:07;;;;;;;0.00;0.00;;;;;;;19.75;54.20;101864.38;4963742;28;20014;-67
2022/07/28 09:08:33;;;;;;;0.00;0.00;;;;;;;19.60;54.08;101834.91;4955501;28;20408;-68
2022/07/28 09:10:58;;;;;;;0.00;0.00;;;;;;;19.72;53.83;101853.78;4937875;28;20539;-67
2022/07/28 09:13:24;;;;;;;0.00;0.00;;;;;;;19.77;53.48;101860.47;4961641;28;20038;-68
2022/07/28 09:15:49;;;;;;;0.00;0.00;;;;;;;19.82;54.46;101851.84;4969737;28;20521;-68
2022/07/28 09:18:16;;;;;;;0.00;0.00;;;;;;;19.75;51.81;101848.84;4973022;28;20492;-67
2022/07/28 09:20:42;;;;;;;0.00;0.00;;;;;;;20.00;51.18;101843.66;4956735;28;20035;-69
2022/07/28 09:23:08;;;;;;;0.00;0.00;;;;;;;20.01;52.82;101850.81;4961646;28;20141;-69
2022/07/28 09:25:33;;;;;;;0.00;0.00;;;;;;;19.86;53.55;101828.72;4961059;28;20459;-68
2022/07/28 09:28:13;;;;;;;0.00;0.00;;;;;;;19.74;52.16;101822.63;4960171;28;20475;-69
2022/07/28 09:30:40;;;;;;;0.00;0.00;;;;;;;20.04;52.55;101819.69;4973564;28;20034;-71
2022/07/28 09:33:13;;;;;;;0.00;0.00;;;;;;;20.23;53.03;101843.19;4949929;28;20034;-68
2022/07/28 09:35:46;;;;;;;0.00;0.00;;;;;;;20.34;52.58;101828.44;4949481;28;20423;-68
2022/07/28 09:38:12;;;;;;;0.00;0.00;;;;;;;20.36;51.90;101824.50;4955345;28;20031;-68
2022/07/28 09:40:38;;;;;;;0.00;0.00;;;;;;;20.61;53.35;101823.81;4960288;28;20089;-68
2022/07/28 09:43:03;;;;;;;0.00;0.00;;;;;;;20.95;51.61;101821.09;4961678;28;20419;-73
2022/07/28 09:45:29;;;;;;;0.00;0.00;;;;;;;20.77;49.49;101817.63;4965811;28;20499;-68
2022/07/28 09:48:11;;;;;;;0.00;0.00;;;;;;;21.20;49.70;101826.66;4960924;28;20031;-69
2022/07/28 09:50:41;;;;;;;0.00;0.00;;;;;;;20.91;51.03;101807.97;4945047;28;20415;-70
2022/07/28 09:53:22;;;;;;;0.00;0.00;;;;;;;21.03;50.68;101822.16;4961388;28;20031;-67
2022/07/28 09:55:55;;;;;;;0.00;0.00;;;;;;;21.10;51.40;101820.47;4964773;28;20522;-68
2022/07/28 09:58:20;;;;;;;0.00;0.00;;;;;;;21.32;49.08;101812.69;4965215;28;20038;-69
2022/07/28 10:00:46;;;;;;;0.03;0.03;;;;;;;21.39;52.09;101790.00;4957978;28;20164;-69
2022/07/28 10:03:23;;;;;;;0.00;0.00;;;;;;;21.47;48.67;101811.00;4960962;28;20031;-68
2022/07/28 10:05:48;;;;;;;0.00;0.00;;;;;;;21.48;49.80;101801.78;4963936;28;20029;-69
2022/07/28 10:08:14;;;;;;;0.00;0.00;;;;;;;21.65;50.46;101790.88;4956014;28;20027;-69
2022/07/28 10:10:39;;;;;;;0.00;0.00;;;;;;;21.73;49.76;101799.94;4968854;28;20034;-68
2022/07/28 10:13:07;;;;;;;0.00;0.00;;;;;;;21.68;48.22;101782.34;4952047;28;20121;-69
2022/07/28 10:18:16;;;;;;;0.00;0.00;;;;;;;21.85;46.61;101783.22;4969439;28;20043;-68
2022/07/28 10:20:43;;;;;;;0.00;0.00;;;;;;;22.08;47.45;101788.84;4969019;28;20039;-68
2022/07/28 10:23:11;;;;;;;0.00;0.00;;;;;;;22.16;46.35;101775.13;4969099;28;20031;-69
2022/07/28 10:25:38;;;;;;;0.15;0.00;;;;;;;22.18;46.25;101783.19;4967148;28;20027;-70
2022/07/28 10:28:04;;;;;;;0.00;0.00;;;;;;;22.11;45.35;101772.09;4950018;28;20053;-69
2022/07/28 10:30:34;;;;;;;0.00;0.00;;;;;;;22.03;44.51;101767.47;4965313;28;20050;-73
2022/07/28 10:33:02;;;;;;;0.00;0.00;;;;;;;22.27;46.46;101768.44;4982087;28;20033;-68
2022/07/28 10:35:28;;;;;;;0.05;0.00;;;;;;;22.37;46.04;101773.75;4971554;28;20526;-70
2022/07/28 10:37:58;;;;;;;0.00;0.00;;;;;;;22.46;45.08;101769.97;4961822;28;20049;-68
2022/07/28 10:40:28;;;;;;;0.00;0.00;;;;;;;22.49;45.05;101771.53;4968393;28;20077;-68
2022/07/28 10:42:55;;;;;;;0.00;0.00;;;;;;;22.51;47.56;101785.88;4962981;28;20374;-68
2022/07/28 10:45:21;;;;;;;0.00;0.00;;;;;;;22.89;45.50;101787.94;4959779;28;20023;-68
2022/07/28 10:47:47;;;;;;;0.00;0.00;;;;;;;22.64;43.93;101768.03;4968031;28;20395;-69
2022/07/28 10:50:12;;;;;;;0.00;0.00;;;;;;;22.55;43.27;101784.47;4970718;28;20039;-68
2022/07/28 10:52:40;;;;;;;0.00;0.00;;;;;;;23.10;42.73;101781.84;4965679;28;20523;-68
2022/07/28 10:55:11;;;;;;;0.00;0.00;;;;;;;23.15;43.73;101776.66;4969332;28;20089;-67
2022/07/28 10:57:48;;;;;;;0.00;0.00;;;;;;;23.59;42.92;101775.19;4967959;28;20026;-67
2022/07/28 11:00:21;;;;;;;0.00;0.00;;;;;;;23.30;43.78;101782.25;4960257;28;20038;-68
2022/07/28 11:02:50;;;;;;;0.10;0.00;;;;;;;23.73;43.42;101776.28;4960126;28;20263;-67
2022/07/28 11:05:32;;;;;;;0.00;0.00;;;;;;;24.03;41.21;101759.06;4964447;28;20037;-67
2022/07/28 11:08:00;;;;;;;0.00;0.00;;;;;;;23.74;42.43;101778.00;4964224;28;20058;-66
2022/07/28 11:10:25;;;;;;;0.00;0.00;;;;;;;23.69;43.03;101777.69;4962045;28;20030;-67
2022/07/28 11:12:56;;;;;;;0.00;0.00;;;;;;;23.30;40.86;101771.31;4959440;28;20081;-66
2022/07/28 11:15:35;;;;;;;0.00;0.00;;;;;;;23.70;40.18;101770.34;4965491;28;20027;-67
2022/07/28 11:18:08;;;;;;;0.00;0.00;;;;;;;24.12;40.75;101768.94;4968235;28;20101;-70
2022/07/28 11:20:51;;;;;;;0.00;0.00;;;;;;;24.46;42.82;101763.94;4964763;28;20031;-69
2022/07/28 11:23:35;;;;;;;0.00;0.00;;;;;;;24.23;40.04;101757.47;4963702;28;20049;-68
2022/07/28 11:26:19;;;;;;;;;;;;;;;24.39;41.29;101756.44;4969612;28;20161;-68
2022/07/28 11:29:11;;;;;;;0.00;0.00;;;;;;;24.82;40.77;101744.78;4969160;28;19914;-70